createdAt,value
2018-07-16T00:00:23.111Z,100057.28
2018-07-16T00:02:51.320Z,100052.98
2018-07-16T00:05:19.631Z,100059.52
2018-07-16T00:07:47.845Z,100062.95
2018-07-16T00:10:15.986Z,100062.06
2018-07-16T00:12:44.079Z,100071.20
2018-07-16T00:15:12.223Z,100069.05
2018-07-16T00:17:40.346Z,100057.75
2018-07-16T00:20:08.734Z,100052.98
2018-07-16T00:22:36.941Z,100060.32
2018-07-16T00:25:05.163Z,100052.17
2018-07-16T00:27:35.787Z,100046.12
2018-07-16T00:30:05.110Z,100042.61
2018-07-16T00:32:35.716Z,100044.31
2018-07-16T00:35:03.831Z,100043.91
2018-07-16T00:37:32.152Z,100040.91
2018-07-16T00:40:00.412Z,100029.33
2018-07-16T00:42:28.582Z,100030.13
2018-07-16T00:44:56.759Z,100023.56
2018-07-16T00:47:24.909Z,100021.42
2018-07-16T00:49:53.489Z,100011.11
2018-07-16T00:52:21.583Z,100010.72
2018-07-16T00:54:49.658Z,100009.84
2018-07-16T00:57:17.850Z,100012.42
2018-07-16T00:59:46.387Z,100011.52
2018-07-16T01:02:14.622Z,100010.69
2018-07-16T01:04:42.784Z,100009.84
2018-07-16T01:07:11.713Z,100009.45
2018-07-16T01:09:39.960Z,100002.50
2018-07-16T01:12:08.312Z,100002.55
2018-07-16T01:14:36.453Z,99997.33
2018-07-16T01:17:04.674Z,100005.12
2018-07-16T01:19:32.775Z,100007.74
2018-07-16T01:22:00.843Z,100010.76
2018-07-16T01:24:30.660Z,100009.81
2018-07-16T01:26:58.789Z,100006.02
2018-07-16T01:29:26.944Z,100009.83
2018-07-16T01:31:55.980Z,100014.16
2018-07-16T01:34:24.111Z,100010.30
2018-07-16T01:36:52.161Z,100005.98
2018-07-16T01:39:20.261Z,100005.12
2018-07-16T01:41:48.348Z,100000.80
2018-07-16T01:44:16.469Z,100012.43
2018-07-16T01:46:45.198Z,100014.98
2018-07-16T01:49:13.371Z,100017.90
2018-07-16T01:51:42.011Z,100019.13
2018-07-16T01:54:10.109Z,100023.00
2018-07-16T01:56:38.371Z,100024.02
2018-07-16T01:59:06.481Z,100019.91
2018-07-16T02:01:34.912Z,100020.35
2018-07-16T02:04:02.983Z,100016.06
2018-07-16T02:06:31.053Z,100017.98
2018-07-16T02:08:59.136Z,100028.08
2018-07-16T02:11:27.220Z,100026.13
2018-07-16T02:13:55.318Z,100022.12
2018-07-16T02:16:24.071Z,100020.30
2018-07-16T02:21:25.331Z,100009.34
2018-07-16T02:23:54.151Z,100010.78
2018-07-16T02:26:22.478Z,100006.07
2018-07-16T02:28:50.563Z,100007.64
2018-07-16T02:31:18.773Z,100009.44
2018-07-16T02:33:46.888Z,100008.00
2018-07-16T02:36:14.966Z,100004.98
2018-07-16T02:38:43.198Z,99999.46
2018-07-16T02:41:11.274Z,100000.34
2018-07-16T02:43:39.371Z,99993.07
2018-07-16T02:46:07.497Z,100002.11
2018-07-16T02:48:35.580Z,99994.76
2018-07-16T02:51:03.731Z,100008.65
2018-07-16T02:53:31.774Z,100001.80
2018-07-16T02:55:59.875Z,99999.86
2018-07-16T02:58:27.949Z,100001.27
2018-07-16T03:00:56.036Z,100002.06
2018-07-16T03:03:24.296Z,100009.73
2018-07-16T03:05:52.415Z,100006.23
2018-07-16T03:08:20.565Z,100009.69
2018-07-16T03:10:48.744Z,100013.14
2018-07-16T03:13:16.844Z,100006.56
2018-07-16T03:15:44.987Z,100016.06
2018-07-16T03:18:13.064Z,100006.05
2018-07-16T03:20:41.274Z,100003.81
2018-07-16T03:23:10.527Z,99996.54
2018-07-16T03:25:38.618Z,99999.99
2018-07-16T03:28:06.789Z,100000.63
2018-07-16T03:30:34.930Z,100007.48
2018-07-16T03:33:03.029Z,100012.69
2018-07-16T03:35:31.256Z,100014.13
2018-07-16T03:37:59.396Z,100007.05
2018-07-16T03:40:27.466Z,100009.78
2018-07-16T03:42:55.585Z,100007.59
2018-07-16T03:45:24.512Z,100017.08
2018-07-16T03:47:52.688Z,100016.87
2018-07-16T03:50:20.810Z,100010.66
2018-07-16T03:52:49.025Z,100012.03
2018-07-16T03:55:17.213Z,100006.86
2018-07-16T03:57:45.449Z,100001.91
2018-07-16T04:00:13.598Z,100002.38
2018-07-16T04:02:41.685Z,99994.96
2018-07-16T04:05:09.815Z,99990.45
2018-07-16T04:07:38.142Z,99990.56
2018-07-16T04:10:06.219Z,99997.34
2018-07-16T04:12:34.333Z,99995.22
2018-07-16T04:15:02.489Z,99993.88
2018-07-16T04:17:30.602Z,99991.11
2018-07-16T04:19:58.694Z,99989.70
2018-07-16T04:22:26.803Z,99994.41
2018-07-16T04:24:55.077Z,99989.92
2018-07-16T04:27:23.327Z,99990.36
2018-07-16T04:29:51.524Z,99989.14
2018-07-16T04:32:19.635Z,99993.98
2018-07-16T04:34:49.466Z,99992.70
2018-07-16T04:37:17.619Z,99997.05
2018-07-16T04:39:45.768Z,99987.20
2018-07-16T04:42:13.873Z,99987.92
2018-07-16T04:44:42.063Z,99979.89
2018-07-16T04:47:10.203Z,99980.45
2018-07-16T04:49:38.306Z,99977.43
2018-07-16T04:52:06.549Z,99979.98
2018-07-16T04:54:34.622Z,99973.14
2018-07-16T04:57:02.769Z,99976.52
2018-07-16T04:59:30.908Z,99976.19
2018-07-16T05:01:58.979Z,99981.35
2018-07-16T05:04:27.107Z,99977.06
2018-07-16T05:06:55.325Z,99977.07
2018-07-16T05:09:23.530Z,99982.26
2018-07-16T05:11:51.792Z,99987.45
2018-07-16T05:14:20.246Z,99987.02
2018-07-16T05:16:48.905Z,99988.30
2018-07-16T05:19:17.018Z,99984.39
2018-07-16T05:21:45.415Z,99983.14
2018-07-16T05:24:13.661Z,99983.59
2018-07-16T05:26:41.749Z,99983.98
2018-07-16T05:29:09.882Z,99984.01
2018-07-16T05:31:38.402Z,99986.58
2018-07-16T05:34:06.491Z,99982.23
2018-07-16T05:36:34.623Z,99976.22
2018-07-16T05:39:02.828Z,99984.01
2018-07-16T05:41:30.994Z,99983.58
2018-07-16T05:43:59.214Z,99988.77
2018-07-16T05:46:27.382Z,99986.14
2018-07-16T05:48:55.530Z,99983.16
2018-07-16T05:51:23.847Z,99984.00
2018-07-16T05:53:52.046Z,99981.82
2018-07-16T05:56:20.267Z,99983.58
2018-07-16T05:58:48.461Z,99986.59
2018-07-16T06:01:16.718Z,99986.59
2018-07-16T06:03:44.892Z,99981.78
2018-07-16T06:06:13.002Z,99990.05
2018-07-16T06:08:41.221Z,99990.00
2018-07-16T06:11:12.374Z,99987.00
2018-07-16T06:13:40.564Z,99994.37
2018-07-16T06:16:08.783Z,100001.25
2018-07-16T06:18:37.041Z,99994.79
2018-07-16T06:21:05.190Z,99999.13
2018-07-16T06:23:33.290Z,100000.36
2018-07-16T06:26:01.456Z,100001.27
2018-07-16T06:28:29.612Z,100000.41
2018-07-16T06:30:57.720Z,99996.05
2018-07-16T06:33:25.999Z,99996.53
2018-07-16T06:35:55.411Z,99998.25
2018-07-16T06:38:23.763Z,100004.72
2018-07-16T06:40:52.011Z,100004.71
2018-07-16T06:43:20.196Z,100010.29
2018-07-16T06:45:48.459Z,100009.87
2018-07-16T06:48:16.636Z,100009.89
2018-07-16T06:50:44.728Z,100010.33
2018-07-16T06:53:13.066Z,100007.28
2018-07-16T06:55:41.256Z,100011.20
2018-07-16T06:58:09.455Z,100007.28
2018-07-16T07:00:37.591Z,100010.78
2018-07-16T07:03:05.699Z,100008.61
2018-07-16T07:05:33.815Z,100007.28
2018-07-16T07:08:01.952Z,100006.02
2018-07-16T07:10:30.048Z,100007.66
2018-07-16T07:12:58.139Z,100008.98
2018-07-16T07:15:26.927Z,100012.92
2018-07-16T07:17:55.890Z,100006.41
2018-07-16T07:20:24.069Z,100003.84
2018-07-16T07:22:52.330Z,100003.44
2018-07-16T07:25:20.560Z,100001.14
2018-07-16T07:27:49.675Z,100003.33
2018-07-16T07:30:17.831Z,100005.14
2018-07-16T07:32:45.957Z,100008.53
2018-07-16T07:35:14.288Z,100011.13
2018-07-16T07:37:42.291Z,100005.00
2018-07-16T07:40:10.424Z,99997.91
2018-07-16T07:42:38.591Z,100000.80
2018-07-16T07:45:07.072Z,100010.42
2018-07-16T07:47:35.294Z,100012.70
2018-07-16T07:50:03.434Z,100009.03
2018-07-16T07:52:31.577Z,100004.44
2018-07-16T07:54:59.993Z,100001.36
2018-07-16T07:57:28.207Z,100000.53
2018-07-16T07:59:56.428Z,100002.05
2018-07-16T08:02:24.594Z,99994.57
2018-07-16T08:04:52.705Z,99996.27
2018-07-16T08:07:20.815Z,100004.48
2018-07-16T08:09:48.990Z,100002.58
2018-07-16T08:12:17.152Z,99995.46
2018-07-16T08:14:45.285Z,99996.16
2018-07-16T08:17:13.460Z,99993.82
2018-07-16T08:19:41.663Z,99988.88
2018-07-16T08:22:09.954Z,99988.23
2018-07-16T08:24:38.007Z,99990.76
2018-07-16T08:27:06.363Z,99989.61
2018-07-16T08:29:34.458Z,99985.14
2018-07-16T08:32:02.711Z,99989.13
2018-07-16T08:34:30.811Z,99989.60
2018-07-16T08:36:58.907Z,99983.20
2018-07-16T08:39:27.033Z,99984.67
2018-07-16T08:41:56.184Z,99988.23
2018-07-16T08:44:24.917Z,99980.50
2018-07-16T08:46:53.008Z,99980.88
2018-07-16T08:49:21.082Z,99982.29
2018-07-16T08:51:49.290Z,99985.86
2018-07-16T08:54:17.395Z,99983.64
2018-07-16T08:56:45.524Z,99977.52
2018-07-16T08:59:13.663Z,99974.28
2018-07-16T09:01:42.447Z,99976.65
2018-07-16T09:04:10.662Z,99975.63
2018-07-16T09:06:38.669Z,99972.06
2018-07-16T09:09:07.138Z,99977.12
2018-07-16T09:11:35.271Z,99975.49
2018-07-16T09:14:03.479Z,99974.03
2018-07-16T09:16:31.815Z,99975.52
2018-07-16T09:19:00.562Z,99973.20
2018-07-16T09:21:28.671Z,99979.08
2018-07-16T09:23:56.863Z,99968.64
2018-07-16T09:26:25.226Z,99964.57
2018-07-16T09:28:54.087Z,99967.44
2018-07-16T09:31:22.191Z,99966.91
2018-07-16T09:33:50.298Z,99958.23
2018-07-16T09:36:18.389Z,99958.72
2018-07-16T09:38:46.503Z,99956.24
2018-07-16T09:41:14.714Z,99947.34
2018-07-16T09:43:42.928Z,99947.57
2018-07-16T09:46:11.119Z,99947.16
2018-07-16T09:48:39.286Z,99939.54
2018-07-16T09:51:07.442Z,99936.11
2018-07-16T09:53:35.888Z,99939.19
2018-07-16T09:56:03.990Z,99937.39
2018-07-16T09:58:32.168Z,99932.13
2018-07-16T10:01:05.739Z,99932.28
2018-07-16T10:03:34.826Z,99932.28
2018-07-16T10:06:02.975Z,99929.01
2018-07-16T10:08:31.181Z,99920.57
2018-07-16T10:10:59.319Z,99916.20
2018-07-16T10:13:27.574Z,99913.53
2018-07-16T10:15:55.810Z,99908.12
2018-07-16T10:18:23.964Z,99911.41
2018-07-16T10:20:52.075Z,99898.47
2018-07-16T10:23:20.233Z,99893.28
2018-07-16T10:25:48.525Z,99895.64
2018-07-16T10:28:16.828Z,99893.05
2018-07-16T10:30:45.053Z,99889.52
2018-07-16T10:33:13.424Z,99895.95
2018-07-16T10:35:41.665Z,99892.42
2018-07-16T10:38:16.439Z,99890.73
2018-07-16T10:40:44.514Z,99890.90
2018-07-16T10:43:12.600Z,99890.39
2018-07-16T10:45:40.707Z,99882.20
2018-07-16T10:48:08.795Z,99877.97
2018-07-16T10:50:36.892Z,99869.38
2018-07-16T10:53:05.265Z,99871.12
2018-07-16T10:55:33.353Z,99873.95
2018-07-16T10:58:01.851Z,99869.39
2018-07-16T11:00:30.016Z,99864.65
2018-07-16T11:02:58.750Z,99859.27
2018-07-16T11:05:27.104Z,99852.83
2018-07-16T11:07:55.207Z,99850.88
2018-07-16T11:10:23.325Z,99850.77
2018-07-16T11:12:51.475Z,99855.91
2018-07-16T11:15:19.659Z,99851.89
2018-07-16T11:17:47.934Z,99854.26
2018-07-16T11:20:16.254Z,99857.84
2018-07-16T11:22:44.384Z,99851.32
2018-07-16T11:25:12.801Z,99852.31
2018-07-16T11:27:40.903Z,99862.04
2018-07-16T11:30:09.126Z,99854.47
2018-07-16T11:32:37.348Z,99854.98
2018-07-16T11:35:05.721Z,99846.30
2018-07-16T11:37:33.881Z,99844.17
2018-07-16T11:40:02.006Z,99844.62
2018-07-16T11:42:30.707Z,99846.97
2018-07-16T11:44:59.010Z,99847.17
2018-07-16T11:47:27.324Z,99837.65
2018-07-16T11:49:55.564Z,99834.55
2018-07-16T11:52:23.884Z,99831.66
2018-07-16T11:54:53.071Z,99824.16
2018-07-16T11:57:21.167Z,99823.17
2018-07-16T11:59:49.459Z,99805.64
2018-07-16T12:02:17.760Z,99810.25
2018-07-16T12:04:46.271Z,99808.31
2018-07-16T12:07:14.679Z,99803.41
2018-07-16T12:09:42.880Z,99802.73
2018-07-16T12:12:11.044Z,99796.23
2018-07-16T12:14:39.425Z,99795.09
2018-07-16T12:17:07.567Z,99795.81
2018-07-16T12:19:35.738Z,99790.08
2018-07-16T12:22:04.203Z,99780.54
2018-07-16T12:24:32.432Z,99776.23
2018-07-16T12:27:00.857Z,99773.86
2018-07-16T12:29:29.550Z,99768.27
2018-07-16T12:31:57.857Z,99762.98
2018-07-16T12:34:26.156Z,99756.56
2018-07-16T12:36:54.430Z,99756.23
2018-07-16T12:39:22.812Z,99754.27
2018-07-16T12:41:51.130Z,99746.53
2018-07-16T12:44:19.396Z,99750.28
2018-07-16T12:46:48.085Z,99740.20
2018-07-16T12:49:16.479Z,99734.60
2018-07-16T12:51:44.773Z,99729.44
2018-07-16T12:54:12.927Z,99735.03
2018-07-16T12:56:41.569Z,99725.52
2018-07-16T12:59:09.950Z,99719.86
2018-07-16T13:01:38.510Z,99719.16
2018-07-16T13:04:06.819Z,99715.41
2018-07-16T13:06:35.242Z,99712.37
2018-07-16T13:09:04.143Z,99709.77
2018-07-16T13:11:32.605Z,99704.08
2018-07-16T13:14:01.118Z,99700.42
2018-07-16T13:16:29.416Z,99694.36
2018-07-16T13:18:57.599Z,99696.19
2018-07-16T13:21:25.779Z,99697.27
2018-07-16T13:23:54.164Z,99694.72
2018-07-16T13:26:22.532Z,99703.16
2018-07-16T13:28:50.816Z,99705.39
2018-07-16T13:31:20.108Z,99701.45
2018-07-16T13:33:48.551Z,99701.06
2018-07-16T13:36:16.940Z,99700.34
2018-07-16T13:38:45.295Z,99703.61
2018-07-16T13:41:13.472Z,99709.02
2018-07-16T13:43:41.825Z,99689.81
2018-07-16T13:46:10.081Z,99695.87
2018-07-16T13:48:38.488Z,99688.60
2018-07-16T13:51:07.363Z,99686.78
2018-07-16T13:53:35.477Z,99700.14
2018-07-16T13:56:03.704Z,99685.79
2018-07-16T13:58:31.991Z,99689.15
2018-07-16T14:01:00.224Z,99690.97
2018-07-16T14:03:29.145Z,99685.84
2018-07-16T14:05:57.871Z,99675.84
2018-07-16T14:08:25.976Z,99681.52
2018-07-16T14:10:54.563Z,99680.25
2018-07-16T14:13:22.689Z,99681.37
2018-07-16T14:15:50.914Z,99671.39
2018-07-16T14:18:19.198Z,99663.08
2018-07-16T14:20:47.591Z,99661.69
2018-07-16T14:23:15.870Z,99656.81
2018-07-16T14:25:44.111Z,99659.98
2018-07-16T14:28:12.276Z,99662.10
2018-07-16T14:30:40.394Z,99662.95
2018-07-16T14:33:08.891Z,99661.06
2018-07-16T14:35:38.372Z,99647.66
2018-07-16T14:38:06.691Z,99648.42
2018-07-16T14:40:35.065Z,99646.61
2018-07-16T14:43:03.565Z,99645.22
2018-07-16T14:45:31.972Z,99639.31
2018-07-16T14:48:00.409Z,99641.77
2018-07-16T14:50:28.602Z,99635.16
2018-07-16T14:52:56.858Z,99644.00
2018-07-16T14:55:25.118Z,99640.95
2018-07-16T14:57:54.301Z,99644.44
2018-07-16T15:00:22.536Z,99642.08
2018-07-16T15:02:50.960Z,99645.75
2018-07-16T15:05:19.155Z,99649.92
2018-07-16T15:07:47.345Z,99646.50
2018-07-16T15:10:15.595Z,99644.58
2018-07-16T15:12:43.791Z,99645.53
2018-07-16T15:15:12.037Z,99640.02
2018-07-16T15:17:40.122Z,99642.95
2018-07-16T15:20:08.552Z,99640.80
2018-07-16T15:22:36.709Z,99646.62
2018-07-16T15:25:05.171Z,99638.00
2018-07-16T15:27:33.255Z,99639.80
2018-07-16T15:30:01.344Z,99633.45
2018-07-16T15:32:29.772Z,99626.69
2018-07-16T15:34:58.072Z,99630.06
2018-07-16T15:37:26.237Z,99632.00
2018-07-16T15:39:55.402Z,99628.19
2018-07-16T15:42:23.508Z,99623.30
2018-07-16T15:44:51.773Z,99618.59
2018-07-16T15:47:19.854Z,99607.59
2018-07-16T15:49:55.884Z,99605.63
2018-07-16T15:52:24.309Z,99601.17
2018-07-16T15:54:55.663Z,99606.95
2018-07-16T15:57:23.792Z,99613.77
2018-07-16T15:59:52.000Z,99615.90
2018-07-16T16:02:20.125Z,99618.27
2018-07-16T16:04:48.262Z,99621.94
2018-07-16T16:07:16.383Z,99625.91
2018-07-16T16:09:44.635Z,99626.00
2018-07-16T16:12:12.704Z,99636.02
2018-07-16T16:14:40.778Z,99628.63
2018-07-16T16:17:08.899Z,99635.23
2018-07-16T16:19:37.118Z,99624.80
2018-07-16T16:22:05.344Z,99625.57
2018-07-16T16:24:33.443Z,99633.72
2018-07-16T16:27:01.499Z,99640.16
2018-07-16T16:29:29.577Z,99643.74
2018-07-16T16:31:58.187Z,99647.09
2018-07-16T16:34:26.420Z,99635.80
2018-07-16T16:36:54.567Z,99640.58
2018-07-16T16:39:22.623Z,99640.42
2018-07-16T16:41:50.701Z,99640.91
2018-07-16T16:44:18.797Z,99650.97
2018-07-16T16:46:46.855Z,99648.11
2018-07-16T16:49:15.229Z,99653.25
2018-07-16T16:51:43.158Z,99663.30
2018-07-16T16:54:11.286Z,99649.88
2018-07-16T16:56:39.639Z,99657.78
2018-07-16T16:59:07.707Z,99661.68
2018-07-16T17:01:35.750Z,99662.66
2018-07-16T17:04:04.131Z,99667.38
2018-07-16T17:06:32.203Z,99666.55
2018-07-16T17:09:00.275Z,99654.70
2018-07-16T17:11:28.372Z,99660.60
2018-07-16T17:13:56.427Z,99656.31
2018-07-16T17:16:24.588Z,99663.67
2018-07-16T17:18:52.695Z,99662.41
2018-07-16T17:21:20.762Z,99668.63
2018-07-16T17:23:48.882Z,99660.16
2018-07-16T17:26:17.005Z,99659.59
2018-07-16T17:28:45.091Z,99662.64
2018-07-16T17:31:13.163Z,99661.68
2018-07-16T17:33:41.350Z,99659.11
2018-07-16T17:36:09.515Z,99657.47
2018-07-16T17:38:37.624Z,99658.77
2018-07-16T17:41:05.745Z,99666.55
2018-07-16T17:43:33.908Z,99658.77
2018-07-16T17:46:01.979Z,99667.56
2018-07-16T17:48:30.105Z,99657.75
2018-07-16T17:51:00.049Z,99660.56
2018-07-16T17:53:29.327Z,99656.20
2018-07-16T17:55:57.447Z,99663.31
2018-07-16T17:58:25.544Z,99662.28
2018-07-16T18:00:53.694Z,99663.03
2018-07-16T18:03:22.242Z,99662.24
2018-07-16T18:05:50.361Z,99655.64
2018-07-16T18:08:19.574Z,99655.64
2018-07-16T18:10:47.819Z,99650.63
2018-07-16T18:13:16.021Z,99656.82
2018-07-16T18:15:44.047Z,99654.66
2018-07-16T18:18:12.156Z,99653.92
2018-07-16T18:20:40.258Z,99652.46
2018-07-16T18:23:08.378Z,99659.06
2018-07-16T18:25:36.505Z,99657.28
2018-07-16T18:28:04.984Z,99658.31
2018-07-16T18:30:33.057Z,99658.03
2018-07-16T18:33:01.131Z,99657.47
2018-07-16T18:35:30.458Z,99654.53
2018-07-16T18:37:59.118Z,99658.23
2018-07-16T18:40:27.380Z,99667.19
2018-07-16T18:42:55.530Z,99667.77
2018-07-16T18:45:23.703Z,99677.53
2018-07-16T18:47:52.883Z,99681.87
2018-07-16T18:50:21.088Z,99681.45
2018-07-16T18:52:49.219Z,99681.87
2018-07-16T18:55:17.496Z,99687.95
2018-07-16T18:57:45.551Z,99687.75
2018-07-16T19:00:13.616Z,99695.17
2018-07-16T19:02:41.667Z,99697.80
2018-07-16T19:05:09.762Z,99704.59
2018-07-16T19:07:37.812Z,99703.38
2018-07-16T19:10:06.395Z,99704.44
2018-07-16T19:12:38.022Z,99713.64
2018-07-16T19:15:11.805Z,99720.89
2018-07-16T19:17:39.930Z,99724.13
2018-07-16T19:20:08.147Z,99724.20
2018-07-16T19:22:36.204Z,99730.70
2018-07-16T19:25:04.288Z,99726.95
2018-07-16T19:27:32.357Z,99726.52
2018-07-16T19:30:00.643Z,99726.75
2018-07-16T19:32:30.600Z,99726.25
2018-07-16T19:35:00.178Z,99731.91
2018-07-16T19:37:29.104Z,99729.52
2018-07-16T19:39:57.227Z,99730.25
2018-07-16T19:42:26.335Z,99728.48
2018-07-16T19:44:54.403Z,99733.61
2018-07-16T19:47:22.537Z,99735.95
2018-07-16T19:49:50.809Z,99738.98
2018-07-16T19:52:18.896Z,99741.02
2018-07-16T19:54:46.962Z,99740.14
2018-07-16T19:57:15.054Z,99740.98
2018-07-16T19:59:43.164Z,99743.17
2018-07-16T20:02:11.243Z,99749.80
2018-07-16T20:04:39.731Z,99741.71
2018-07-16T20:07:07.915Z,99739.95
2018-07-16T20:09:36.132Z,99742.63
2018-07-16T20:12:04.161Z,99741.48
2018-07-16T20:14:32.400Z,99748.30
2018-07-16T20:17:01.369Z,99744.88
2018-07-16T20:19:29.632Z,99746.00
2018-07-16T20:21:57.807Z,99749.52
2018-07-16T20:24:27.150Z,99760.89
2018-07-16T20:26:55.285Z,99752.02
2018-07-16T20:29:23.350Z,99752.83
2018-07-16T20:31:51.459Z,99761.56
2018-07-16T20:34:19.575Z,99758.23
2018-07-16T20:36:48.313Z,99764.08
2018-07-16T20:39:17.426Z,99760.47
2018-07-16T20:41:45.735Z,99759.17
2018-07-16T20:44:13.918Z,99765.33
2018-07-16T20:46:42.139Z,99766.59
2018-07-16T20:49:10.245Z,99768.02
2018-07-16T20:51:38.383Z,99770.64
2018-07-16T20:54:06.931Z,99772.19
2018-07-16T20:56:35.259Z,99774.77
2018-07-16T20:59:03.356Z,99781.28
2018-07-16T21:01:31.454Z,99777.50
2018-07-16T21:03:59.762Z,99785.62
2018-07-16T21:06:27.872Z,99790.66
2018-07-16T21:08:56.075Z,99794.50
2018-07-16T21:11:24.202Z,99797.31
2018-07-16T21:13:52.529Z,99803.48
2018-07-16T21:16:20.651Z,99812.77
2018-07-16T21:18:48.772Z,99821.08
2018-07-16T21:21:17.255Z,99825.36
2018-07-16T21:23:45.476Z,99815.64
2018-07-16T21:26:13.541Z,99816.09
2018-07-16T21:28:41.602Z,99821.94
2018-07-16T21:31:09.850Z,99823.73
2018-07-16T21:33:38.098Z,99817.84
2018-07-16T21:36:07.278Z,99813.61
2018-07-16T21:38:35.348Z,99819.63
2018-07-16T21:41:03.521Z,99817.70
2018-07-16T21:43:31.634Z,99819.00
2018-07-16T21:45:59.836Z,99819.32
2018-07-16T21:48:28.151Z,99820.48
2018-07-16T21:50:57.448Z,99820.06
2018-07-16T21:53:25.825Z,99826.50
2018-07-16T21:55:54.076Z,99824.80
2018-07-16T21:58:22.676Z,99837.45
2018-07-16T22:00:51.273Z,99830.06
2018-07-16T22:03:19.335Z,99827.42
2018-07-16T22:05:47.420Z,99828.51
2018-07-16T22:08:15.709Z,99830.92
2018-07-16T22:10:43.829Z,99833.14
2018-07-16T22:13:12.048Z,99832.08
2018-07-16T22:15:40.877Z,99840.00
2018-07-16T22:18:09.609Z,99843.05
2018-07-16T22:20:37.980Z,99842.94
2018-07-16T22:23:06.384Z,99845.02
2018-07-16T22:25:34.583Z,99843.92
2018-07-16T22:28:02.723Z,99841.23
2018-07-16T22:30:30.872Z,99839.11
2018-07-16T22:33:00.341Z,99841.72
2018-07-16T22:35:28.934Z,99838.92
2018-07-16T22:37:57.277Z,99838.47
2018-07-16T22:40:25.495Z,99843.27
2018-07-16T22:42:53.605Z,99839.88
2018-07-16T22:45:21.739Z,99839.32
2018-07-16T22:47:49.959Z,99841.56
2018-07-16T22:50:19.716Z,99842.73
2018-07-16T22:52:48.125Z,99842.19
2018-07-16T22:55:21.649Z,99845.17
2018-07-16T22:58:01.476Z,99840.96
2018-07-16T23:00:31.456Z,99840.84
2018-07-16T23:03:00.344Z,99848.55
2018-07-16T23:05:28.669Z,99841.67
2018-07-16T23:07:56.815Z,99840.27
2018-07-16T23:10:25.254Z,99836.39
2018-07-16T23:12:53.619Z,99838.00
2018-07-16T23:15:21.758Z,99843.11
2018-07-16T23:17:50.054Z,99844.50
2018-07-16T23:20:18.158Z,99847.13
2018-07-16T23:22:54.590Z,99840.74
2018-07-16T23:25:23.057Z,99847.73
2018-07-16T23:27:51.520Z,99848.86
2018-07-16T23:30:20.613Z,99856.19
2018-07-16T23:32:49.118Z,99847.98
2018-07-16T23:35:18.209Z,99853.08
2018-07-16T23:37:46.608Z,99867.56
2018-07-16T23:40:14.906Z,99858.47
2018-07-16T23:42:43.549Z,99863.22
2018-07-16T23:45:12.118Z,99871.39
2018-07-16T23:47:40.402Z,99864.87
2018-07-16T23:50:08.526Z,99863.22
2018-07-16T23:52:36.861Z,99864.63
2018-07-16T23:55:05.262Z,99870.35
2018-07-16T23:57:33.428Z,99876.00
